sensor_id;sensor_type;location;lat;lon;timestamp;P1;durP1;ratioP1;P2;durP2;ratioP2
59922;SDS011;45778;51.142;3.732;2022-09-02T00:00:41;7.30;;;2.88;;
59922;SDS011;45778;51.142;3.732;2022-09-02T00:03:11;11.02;;;3.05;;
59922;SDS011;45778;51.142;3.732;2022-09-02T00:05:37;7.05;;;2.58;;
59922;SDS011;45778;51.142;3.732;2022-09-02T00:08:03;6.88;;;2.72;;
59922;SDS011;45778;51.142;3.732;2022-09-02T00:10:34;6.15;;;2.63;;
59922;SDS011;45778;51.142;3.732;2022-09-02T00:13:02;13.10;;;3.53;;
59922;SDS011;45778;51.142;3.732;2022-09-02T00:15:29;8.00;;;3.10;;
59922;SDS011;45778;51.142;3.732;2022-09-02T00:17:55;8.25;;;2.78;;
59922;SDS011;45778;51.142;3.732;2022-09-02T00:20:21;12.20;;;2.88;;
59922;SDS011;45778;51.142;3.732;2022-09-02T00:22:48;5.88;;;2.97;;
59922;SDS011;45778;51.142;3.732;2022-09-02T00:25:14;7.68;;;3.08;;
59922;SDS011;45778;51.142;3.732;2022-09-02T00:27:39;8.70;;;2.78;;
59922;SDS011;45778;51.142;3.732;2022-09-02T00:30:05;8.10;;;2.90;;
59922;SDS011;45778;51.142;3.732;2022-09-02T00:32:31;5.72;;;2.72;;
59922;SDS011;45778;51.142;3.732;2022-09-02T00:34:57;8.07;;;2.72;;
59922;SDS011;45778;51.142;3.732;2022-09-02T00:37:23;7.70;;;3.47;;
59922;SDS011;45778;51.142;3.732;2022-09-02T00:39:50;6.22;;;2.63;;
59922;SDS011;45778;51.142;3.732;2022-09-02T00:42:17;8.20;;;2.60;;
59922;SDS011;45778;51.142;3.732;2022-09-02T00:44:44;5.93;;;2.78;;
59922;SDS011;45778;51.142;3.732;2022-09-02T00:47:09;10.52;;;3.13;;
59922;SDS011;45778;51.142;3.732;2022-09-02T00:49:37;8.90;;;3.35;;
59922;SDS011;45778;51.142;3.732;2022-09-02T00:52:07;7.78;;;3.03;;
59922;SDS011;45778;51.142;3.732;2022-09-02T00:54:38;8.85;;;2.92;;
59922;SDS011;45778;51.142;3.732;2022-09-02T00:57:10;11.88;;;3.33;;
59922;SDS011;45778;51.142;3.732;2022-09-02T01:02:36;7.28;;;2.95;;
59922;SDS011;45778;51.142;3.732;2022-09-02T01:05:06;10.90;;;3.25;;
59922;SDS011;45778;51.142;3.732;2022-09-02T01:07:34;8.05;;;3.10;;
59922;SDS011;45778;51.142;3.732;2022-09-02T01:10:05;7.18;;;2.92;;
59922;SDS011;45778;51.142;3.732;2022-09-02T01:12:36;7.72;;;3.55;;
59922;SDS011;45778;51.142;3.732;2022-09-02T01:15:03;6.65;;;3.00;;
59922;SDS011;45778;51.142;3.732;2022-09-02T01:17:31;5.38;;;2.80;;
59922;SDS011;45778;51.142;3.732;2022-09-02T01:20:02;4.93;;;3.00;;
59922;SDS011;45778;51.142;3.732;2022-09-02T01:22:31;12.10;;;3.55;;
59922;SDS011;45778;51.142;3.732;2022-09-02T01:24:59;8.05;;;3.33;;
59922;SDS011;45778;51.142;3.732;2022-09-02T01:27:29;7.50;;;3.35;;
59922;SDS011;45778;51.142;3.732;2022-09-02T01:29:56;7.40;;;2.72;;
59922;SDS011;45778;51.142;3.732;2022-09-02T01:32:23;9.45;;;3.13;;
59922;SDS011;45778;51.142;3.732;2022-09-02T01:34:50;5.45;;;3.03;;
59922;SDS011;45778;51.142;3.732;2022-09-02T01:37:17;11.93;;;3.92;;
59922;SDS011;45778;51.142;3.732;2022-09-02T01:39:43;8.82;;;3.30;;
59922;SDS011;45778;51.142;3.732;2022-09-02T01:42:10;6.07;;;2.90;;
59922;SDS011;45778;51.142;3.732;2022-09-02T01:44:36;8.73;;;3.80;;
59922;SDS011;45778;51.142;3.732;2022-09-02T01:47:08;9.98;;;3.15;;
59922;SDS011;45778;51.142;3.732;2022-09-02T01:49:35;5.30;;;3.10;;
59922;SDS011;45778;51.142;3.732;2022-09-02T01:52:01;7.93;;;3.17;;
59922;SDS011;45778;51.142;3.732;2022-09-02T01:54:27;10.40;;;3.25;;
59922;SDS011;45778;51.142;3.732;2022-09-02T01:56:52;5.70;;;3.05;;
59922;SDS011;45778;51.142;3.732;2022-09-02T01:59:18;8.27;;;3.00;;
59922;SDS011;45778;51.142;3.732;2022-09-02T02:01:45;10.00;;;3.80;;
59922;SDS011;45778;51.142;3.732;2022-09-02T02:04:11;9.50;;;3.72;;
59922;SDS011;45778;51.142;3.732;2022-09-02T02:06:40;9.23;;;4.30;;
59922;SDS011;45778;51.142;3.732;2022-09-02T02:09:07;10.40;;;4.00;;
59922;SDS011;45778;51.142;3.732;2022-09-02T02:11:33;11.45;;;3.58;;
59922;SDS011;45778;51.142;3.732;2022-09-02T02:14:02;10.30;;;3.78;;
59922;SDS011;45778;51.142;3.732;2022-09-02T02:16:28;8.65;;;3.83;;
59922;SDS011;45778;51.142;3.732;2022-09-02T02:18:54;11.25;;;3.92;;
59922;SDS011;45778;51.142;3.732;2022-09-02T02:21:20;8.68;;;4.30;;
59922;SDS011;45778;51.142;3.732;2022-09-02T02:23:46;14.40;;;4.55;;
59922;SDS011;45778;51.142;3.732;2022-09-02T02:26:15;8.63;;;4.35;;
59922;SDS011;45778;51.142;3.732;2022-09-02T02:28:40;10.02;;;4.25;;
59922;SDS011;45778;51.142;3.732;2022-09-02T02:31:06;7.05;;;3.80;;
59922;SDS011;45778;51.142;3.732;2022-09-02T02:33:32;13.63;;;4.80;;
59922;SDS011;45778;51.142;3.732;2022-09-02T02:35:59;9.00;;;4.30;;
59922;SDS011;45778;51.142;3.732;2022-09-02T02:38:25;7.82;;;4.55;;
59922;SDS011;45778;51.142;3.732;2022-09-02T02:40:54;8.30;;;4.43;;
59922;SDS011;45778;51.142;3.732;2022-09-02T02:43:21;6.93;;;4.22;;
59922;SDS011;45778;51.142;3.732;2022-09-02T02:45:48;7.30;;;4.13;;
59922;SDS011;45778;51.142;3.732;2022-09-02T02:48:15;13.07;;;5.05;;
59922;SDS011;45778;51.142;3.732;2022-09-02T02:50:40;12.50;;;4.15;;
59922;SDS011;45778;51.142;3.732;2022-09-02T02:53:06;7.80;;;4.35;;
59922;SDS011;45778;51.142;3.732;2022-09-02T02:55:32;7.60;;;4.13;;
59922;SDS011;45778;51.142;3.732;2022-09-02T02:57:58;9.38;;;4.53;;
59922;SDS011;45778;51.142;3.732;2022-09-02T03:00:26;12.07;;;4.43;;
59922;SDS011;45778;51.142;3.732;2022-09-02T03:02:55;10.95;;;4.63;;
59922;SDS011;45778;51.142;3.732;2022-09-02T03:05:25;9.82;;;4.72;;
59922;SDS011;45778;51.142;3.732;2022-09-02T03:07:51;9.90;;;5.00;;
59922;SDS011;45778;51.142;3.732;2022-09-02T03:10:18;10.93;;;4.72;;
59922;SDS011;45778;51.142;3.732;2022-09-02T03:12:44;9.80;;;5.15;;
59922;SDS011;45778;51.142;3.732;2022-09-02T03:15:11;11.20;;;4.45;;
59922;SDS011;45778;51.142;3.732;2022-09-02T03:17:40;12.95;;;5.43;;
59922;SDS011;45778;51.142;3.732;2022-09-02T03:20:07;9.30;;;5.20;;
59922;SDS011;45778;51.142;3.732;2022-09-02T03:22:33;12.95;;;5.10;;
59922;SDS011;45778;51.142;3.732;2022-09-02T03:25:01;7.57;;;4.60;;
59922;SDS011;45778;51.142;3.732;2022-09-02T03:27:27;11.00;;;5.13;;
59922;SDS011;45778;51.142;3.732;2022-09-02T03:29:53;11.98;;;5.47;;
59922;SDS011;45778;51.142;3.732;2022-09-02T03:32:19;10.82;;;6.03;;
59922;SDS011;45778;51.142;3.732;2022-09-02T03:34:44;7.65;;;5.32;;
59922;SDS011;45778;51.142;3.732;2022-09-02T03:37:10;8.68;;;5.32;;
59922;SDS011;45778;51.142;3.732;2022-09-02T03:39:36;11.77;;;5.80;;
59922;SDS011;45778;51.142;3.732;2022-09-02T03:42:03;16.60;;;6.32;;
59922;SDS011;45778;51.142;3.732;2022-09-02T03:44:29;10.80;;;5.15;;
59922;SDS011;45778;51.142;3.732;2022-09-02T03:46:55;15.25;;;5.90;;
59922;SDS011;45778;51.142;3.732;2022-09-02T03:49:20;14.93;;;5.47;;
59922;SDS011;45778;51.142;3.732;2022-09-02T03:51:46;10.48;;;5.53;;
59922;SDS011;45778;51.142;3.732;2022-09-02T03:54:11;14.73;;;6.40;;
59922;SDS011;45778;51.142;3.732;2022-09-02T03:56:37;15.68;;;5.70;;
59922;SDS011;45778;51.142;3.732;2022-09-02T03:59:03;11.25;;;5.57;;
59922;SDS011;45778;51.142;3.732;2022-09-02T04:01:29;9.32;;;6.03;;
59922;SDS011;45778;51.142;3.732;2022-09-02T04:03:55;13.00;;;5.90;;
59922;SDS011;45778;51.142;3.732;2022-09-02T04:06:26;13.10;;;5.90;;
59922;SDS011;45778;51.142;3.732;2022-09-02T04:08:53;15.43;;;6.10;;
59922;SDS011;45778;51.142;3.732;2022-09-02T04:11:20;18.83;;;6.88;;
59922;SDS011;45778;51.142;3.732;2022-09-02T04:13:48;16.98;;;6.25;;
59922;SDS011;45778;51.142;3.732;2022-09-02T04:16:16;11.30;;;6.07;;
59922;SDS011;45778;51.142;3.732;2022-09-02T04:18:44;15.65;;;5.97;;
59922;SDS011;45778;51.142;3.732;2022-09-02T04:21:10;14.88;;;6.20;;
59922;SDS011;45778;51.142;3.732;2022-09-02T04:23:36;13.80;;;6.18;;
59922;SDS011;45778;51.142;3.732;2022-09-02T04:26:05;14.48;;;5.80;;
59922;SDS011;45778;51.142;3.732;2022-09-02T04:28:32;16.75;;;6.40;;
59922;SDS011;45778;51.142;3.732;2022-09-02T04:30:58;12.25;;;6.03;;
59922;SDS011;45778;51.142;3.732;2022-09-02T04:33:24;9.77;;;6.38;;
59922;SDS011;45778;51.142;3.732;2022-09-02T04:35:49;10.70;;;5.82;;
59922;SDS011;45778;51.142;3.732;2022-09-02T04:38:16;10.88;;;5.93;;
59922;SDS011;45778;51.142;3.732;2022-09-02T04:40:42;10.40;;;5.85;;
59922;SDS011;45778;51.142;3.732;2022-09-02T04:43:09;7.45;;;5.80;;
59922;SDS011;45778;51.142;3.732;2022-09-02T04:45:39;11.55;;;6.35;;
59922;SDS011;45778;51.142;3.732;2022-09-02T04:48:07;10.50;;;6.25;;
59922;SDS011;45778;51.142;3.732;2022-09-02T04:50:34;11.50;;;6.20;;
59922;SDS011;45778;51.142;3.732;2022-09-02T04:53:01;11.13;;;6.10;;
59922;SDS011;45778;51.142;3.732;2022-09-02T04:55:27;10.15;;;6.72;;
59922;SDS011;45778;51.142;3.732;2022-09-02T04:57:52;10.20;;;6.53;;
59922;SDS011;45778;51.142;3.732;2022-09-02T05:00:18;13.05;;;6.75;;
59922;SDS011;45778;51.142;3.732;2022-09-02T05:02:44;15.05;;;6.47;;
59922;SDS011;45778;51.142;3.732;2022-09-02T05:05:09;14.55;;;6.57;;
59922;SDS011;45778;51.142;3.732;2022-09-02T05:07:36;19.27;;;6.65;;
59922;SDS011;45778;51.142;3.732;2022-09-02T05:10:03;13.52;;;6.15;;
59922;SDS011;45778;51.142;3.732;2022-09-02T05:12:30;13.25;;;5.88;;
59922;SDS011;45778;51.142;3.732;2022-09-02T05:14:59;15.02;;;6.55;;
59922;SDS011;45778;51.142;3.732;2022-09-02T05:17:25;14.05;;;6.38;;
59922;SDS011;45778;51.142;3.732;2022-09-02T05:19:56;14.55;;;7.25;;
59922;SDS011;45778;51.142;3.732;2022-09-02T05:22:21;14.80;;;6.45;;
59922;SDS011;45778;51.142;3.732;2022-09-02T05:24:47;14.93;;;7.13;;
59922;SDS011;45778;51.142;3.732;2022-09-02T05:27:13;16.60;;;6.55;;
59922;SDS011;45778;51.142;3.732;2022-09-02T05:29:40;12.55;;;6.80;;
59922;SDS011;45778;51.142;3.732;2022-09-02T05:32:06;13.05;;;6.13;;
59922;SDS011;45778;51.142;3.732;2022-09-02T05:34:33;11.30;;;6.18;;
59922;SDS011;45778;51.142;3.732;2022-09-02T05:36:59;13.57;;;7.05;;
59922;SDS011;45778;51.142;3.732;2022-09-02T05:39:26;11.23;;;6.30;;
59922;SDS011;45778;51.142;3.732;2022-09-02T05:41:52;11.48;;;6.88;;
59922;SDS011;45778;51.142;3.732;2022-09-02T05:44:17;11.07;;;7.00;;
59922;SDS011;45778;51.142;3.732;2022-09-02T05:46:43;15.45;;;6.95;;
59922;SDS011;45778;51.142;3.732;2022-09-02T05:49:12;16.90;;;6.28;;
59922;SDS011;45778;51.142;3.732;2022-09-02T05:54:13;18.10;;;6.65;;
59922;SDS011;45778;51.142;3.732;2022-09-02T05:56:42;13.70;;;6.57;;
59922;SDS011;45778;51.142;3.732;2022-09-02T05:59:09;14.32;;;6.30;;
59922;SDS011;45778;51.142;3.732;2022-09-02T06:01:35;15.07;;;6.20;;
59922;SDS011;45778;51.142;3.732;2022-09-02T06:04:02;10.65;;;6.10;;
59922;SDS011;45778;51.142;3.732;2022-09-02T06:06:29;14.75;;;5.75;;
59922;SDS011;45778;51.142;3.732;2022-09-02T06:08:55;11.00;;;5.85;;
59922;SDS011;45778;51.142;3.732;2022-09-02T06:11:22;15.18;;;6.10;;
59922;SDS011;45778;51.142;3.732;2022-09-02T06:13:48;14.40;;;6.13;;
59922;SDS011;45778;51.142;3.732;2022-09-02T06:16:17;8.93;;;5.75;;
59922;SDS011;45778;51.142;3.732;2022-09-02T06:18:45;12.43;;;4.97;;
59922;SDS011;45778;51.142;3.732;2022-09-02T06:21:11;10.20;;;5.43;;
59922;SDS011;45778;51.142;3.732;2022-09-02T06:23:38;14.80;;;5.47;;
59922;SDS011;45778;51.142;3.732;2022-09-02T06:26:08;10.32;;;4.95;;
59922;SDS011;45778;51.142;3.732;2022-09-02T06:28:38;15.00;;;4.80;;
59922;SDS011;45778;51.142;3.732;2022-09-02T06:31:19;13.13;;;4.85;;
59922;SDS011;45778;51.142;3.732;2022-09-02T06:33:46;11.77;;;5.22;;
59922;SDS011;45778;51.142;3.732;2022-09-02T06:36:14;8.75;;;5.22;;
59922;SDS011;45778;51.142;3.732;2022-09-02T06:38:45;8.27;;;4.75;;
59922;SDS011;45778;51.142;3.732;2022-09-02T06:41:13;12.23;;;5.18;;
59922;SDS011;45778;51.142;3.732;2022-09-02T06:43:40;17.60;;;5.05;;
59922;SDS011;45778;51.142;3.732;2022-09-02T06:46:07;8.75;;;4.80;;
59922;SDS011;45778;51.142;3.732;2022-09-02T06:48:38;8.23;;;4.50;;
59922;SDS011;45778;51.142;3.732;2022-09-02T06:51:04;9.80;;;5.07;;
59922;SDS011;45778;51.142;3.732;2022-09-02T06:53:29;8.82;;;4.50;;
59922;SDS011;45778;51.142;3.732;2022-09-02T06:55:55;11.88;;;5.45;;
59922;SDS011;45778;51.142;3.732;2022-09-02T06:58:21;14.38;;;5.65;;
59922;SDS011;45778;51.142;3.732;2022-09-02T07:00:46;11.68;;;4.95;;
59922;SDS011;45778;51.142;3.732;2022-09-02T07:03:12;14.35;;;5.47;;
59922;SDS011;45778;51.142;3.732;2022-09-02T07:06:00;11.50;;;5.38;;
59922;SDS011;45778;51.142;3.732;2022-09-02T07:08:35;11.07;;;5.55;;
59922;SDS011;45778;51.142;3.732;2022-09-02T07:11:03;12.32;;;5.10;;
59922;SDS011;45778;51.142;3.732;2022-09-02T07:13:31;13.27;;;5.53;;
59922;SDS011;45778;51.142;3.732;2022-09-02T07:15:57;14.60;;;5.70;;
59922;SDS011;45778;51.142;3.732;2022-09-02T07:18:23;24.50;;;6.22;;
59922;SDS011;45778;51.142;3.732;2022-09-02T07:20:48;16.45;;;5.43;;
59922;SDS011;45778;51.142;3.732;2022-09-02T07:23:14;12.73;;;4.95;;
59922;SDS011;45778;51.142;3.732;2022-09-02T07:25:41;12.10;;;5.07;;
59922;SDS011;45778;51.142;3.732;2022-09-02T07:28:08;13.43;;;5.68;;
59922;SDS011;45778;51.142;3.732;2022-09-02T07:30:35;15.57;;;5.47;;
59922;SDS011;45778;51.142;3.732;2022-09-02T07:33:01;10.82;;;5.80;;
59922;SDS011;45778;51.142;3.732;2022-09-02T07:35:27;12.57;;;5.47;;
59922;SDS011;45778;51.142;3.732;2022-09-02T07:37:53;15.50;;;5.65;;
59922;SDS011;45778;51.142;3.732;2022-09-02T07:40:19;11.38;;;5.28;;
59922;SDS011;45778;51.142;3.732;2022-09-02T07:42:45;14.75;;;4.85;;
59922;SDS011;45778;51.142;3.732;2022-09-02T07:45:11;9.23;;;4.97;;
59922;SDS011;45778;51.142;3.732;2022-09-02T07:47:37;9.75;;;5.20;;
59922;SDS011;45778;51.142;3.732;2022-09-02T07:50:02;13.15;;;5.45;;
59922;SDS011;45778;51.142;3.732;2022-09-02T07:52:28;14.90;;;4.90;;
59922;SDS011;45778;51.142;3.732;2022-09-02T07:54:54;8.02;;;4.65;;
59922;SDS011;45778;51.142;3.732;2022-09-02T07:57:20;8.93;;;4.85;;
59922;SDS011;45778;51.142;3.732;2022-09-02T07:59:46;11.38;;;4.40;;
59922;SDS011;45778;51.142;3.732;2022-09-02T08:02:12;11.23;;;4.68;;
59922;SDS011;45778;51.142;3.732;2022-09-02T08:04:39;8.75;;;4.53;;
59922;SDS011;45778;51.142;3.732;2022-09-02T08:07:04;11.88;;;4.97;;
59922;SDS011;45778;51.142;3.732;2022-09-02T08:09:30;10.07;;;4.65;;
59922;SDS011;45778;51.142;3.732;2022-09-02T08:11:56;7.30;;;4.43;;
59922;SDS011;45778;51.142;3.732;2022-09-02T08:14:23;12.25;;;4.82;;
59922;SDS011;45778;51.142;3.732;2022-09-02T08:16:51;11.75;;;4.78;;
59922;SDS011;45778;51.142;3.732;2022-09-02T08:19:18;8.40;;;4.32;;
59922;SDS011;45778;51.142;3.732;2022-09-02T08:21:45;12.35;;;4.40;;
59922;SDS011;45778;51.142;3.732;2022-09-02T08:24:11;8.85;;;4.72;;
59922;SDS011;45778;51.142;3.732;2022-09-02T08:26:37;7.68;;;3.88;;
59922;SDS011;45778;51.142;3.732;2022-09-02T08:29:03;6.38;;;4.00;;
59922;SDS011;45778;51.142;3.732;2022-09-02T08:31:30;9.68;;;4.28;;
59922;SDS011;45778;51.142;3.732;2022-09-02T08:33:56;11.82;;;4.40;;
59922;SDS011;45778;51.142;3.732;2022-09-02T08:36:22;7.20;;;3.75;;
59922;SDS011;45778;51.142;3.732;2022-09-02T08:38:48;9.45;;;4.20;;
59922;SDS011;45778;51.142;3.732;2022-09-02T08:44:02;7.03;;;3.78;;
59922;SDS011;45778;51.142;3.732;2022-09-02T08:46:29;11.85;;;3.97;;
59922;SDS011;45778;51.142;3.732;2022-09-02T08:48:58;7.53;;;4.25;;
59922;SDS011;45778;51.142;3.732;2022-09-02T08:51:43;7.05;;;3.83;;
59922;SDS011;45778;51.142;3.732;2022-09-02T08:54:22;7.65;;;3.90;;
59922;SDS011;45778;51.142;3.732;2022-09-02T08:56:56;11.77;;;4.18;;
59922;SDS011;45778;51.142;3.732;2022-09-02T08:59:23;13.27;;;5.35;;
59922;SDS011;45778;51.142;3.732;2022-09-02T09:04:55;6.82;;;4.78;;
59922;SDS011;45778;51.142;3.732;2022-09-02T09:15:11;7.93;;;4.00;;
59922;SDS011;45778;51.142;3.732;2022-09-02T09:17:47;9.35;;;4.25;;
59922;SDS011;45778;51.142;3.732;2022-09-02T09:20:41;11.88;;;4.63;;
59922;SDS011;45778;51.142;3.732;2022-09-02T09:23:15;10.10;;;3.95;;
59922;SDS011;45778;51.142;3.732;2022-09-02T09:25:42;5.78;;;3.58;;
59922;SDS011;45778;51.142;3.732;2022-09-02T09:28:11;8.82;;;4.15;;
59922;SDS011;45778;51.142;3.732;2022-09-02T09:30:36;11.50;;;4.43;;
59922;SDS011;45778;51.142;3.732;2022-09-02T09:33:03;7.10;;;4.25;;
59922;SDS011;45778;51.142;3.732;2022-09-02T09:38:31;10.18;;;3.72;;
59922;SDS011;45778;51.142;3.732;2022-09-02T09:43:44;6.45;;;3.45;;
59922;SDS011;45778;51.142;3.732;2022-09-02T09:46:20;8.30;;;3.80;;
59922;SDS011;45778;51.142;3.732;2022-09-02T09:48:53;5.47;;;3.40;;
59922;SDS011;45778;51.142;3.732;2022-09-02T09:51:19;6.18;;;3.33;;
59922;SDS011;45778;51.142;3.732;2022-09-02T09:53:45;6.57;;;4.05;;
59922;SDS011;45778;51.142;3.732;2022-09-02T09:58:43;9.32;;;3.88;;
59922;SDS011;45778;51.142;3.732;2022-09-02T10:01:18;6.63;;;3.53;;
59922;SDS011;45778;51.142;3.732;2022-09-02T10:06:37;6.28;;;3.42;;
59922;SDS011;45778;51.142;3.732;2022-09-02T10:11:54;4.97;;;2.83;;
59922;SDS011;45778;51.142;3.732;2022-09-02T10:14:22;3.67;;;2.88;;
59922;SDS011;45778;51.142;3.732;2022-09-02T10:17:10;9.90;;;3.50;;
59922;SDS011;45778;51.142;3.732;2022-09-02T10:19:53;4.95;;;2.85;;
59922;SDS011;45778;51.142;3.732;2022-09-02T10:22:31;6.15;;;3.45;;
59922;SDS011;45778;51.142;3.732;2022-09-02T10:28:04;3.95;;;3.10;;
59922;SDS011;45778;51.142;3.732;2022-09-02T10:30:59;4.00;;;2.80;;
59922;SDS011;45778;51.142;3.732;2022-09-02T10:41:58;6.00;;;2.53;;
59922;SDS011;45778;51.142;3.732;2022-09-02T10:47:37;3.65;;;2.92;;
59922;SDS011;45778;51.142;3.732;2022-09-02T10:55:36;5.25;;;2.58;;
59922;SDS011;45778;51.142;3.732;2022-09-02T10:58:20;5.97;;;2.80;;
59922;SDS011;45778;51.142;3.732;2022-09-02T11:00:53;4.63;;;2.67;;
59922;SDS011;45778;51.142;3.732;2022-09-02T11:03:35;8.30;;;2.92;;
59922;SDS011;45778;51.142;3.732;2022-09-02T11:06:26;3.70;;;2.63;;
59922;SDS011;45778;51.142;3.732;2022-09-02T11:09:00;12.10;;;2.35;;
59922;SDS011;45778;51.142;3.732;2022-09-02T11:11:31;4.20;;;2.22;;
59922;SDS011;45778;51.142;3.732;2022-09-02T11:17:14;7.10;;;2.40;;
59922;SDS011;45778;51.142;3.732;2022-09-02T11:20:08;4.05;;;2.90;;
59922;SDS011;45778;51.142;3.732;2022-09-02T11:25:36;2.70;;;2.50;;
59922;SDS011;45778;51.142;3.732;2022-09-02T11:31:04;3.00;;;2.35;;
59922;SDS011;45778;51.142;3.732;2022-09-02T11:33:57;6.75;;;2.38;;
59922;SDS011;45778;51.142;3.732;2022-09-02T11:36:28;2.92;;;2.38;;
59922;SDS011;45778;51.142;3.732;2022-09-02T11:38:59;6.28;;;2.42;;
59922;SDS011;45778;51.142;3.732;2022-09-02T11:55:38;5.75;;;2.17;;
59922;SDS011;45778;51.142;3.732;2022-09-02T11:58:33;3.45;;;2.03;;
59922;SDS011;45778;51.142;3.732;2022-09-02T12:01:03;4.13;;;2.20;;
59922;SDS011;45778;51.142;3.732;2022-09-02T12:03:57;4.00;;;2.40;;
59922;SDS011;45778;51.142;3.732;2022-09-02T12:07:31;4.50;;;2.40;;
59922;SDS011;45778;51.142;3.732;2022-09-02T12:09:51;4.63;;;2.47;;
59922;SDS011;45778;51.142;3.732;2022-09-02T12:17:36;4.68;;;2.72;;
59922;SDS011;45778;51.142;3.732;2022-09-02T12:20:05;4.28;;;2.30;;
59922;SDS011;45778;51.142;3.732;2022-09-02T12:22:34;3.72;;;2.20;;
59922;SDS011;45778;51.142;3.732;2022-09-02T12:27:48;7.38;;;2.20;;
59922;SDS011;45778;51.142;3.732;2022-09-02T12:30:16;5.07;;;2.65;;
59922;SDS011;45778;51.142;3.732;2022-09-02T12:33:29;3.25;;;2.50;;
59922;SDS011;45778;51.142;3.732;2022-09-02T12:35:56;6.90;;;2.38;;
59922;SDS011;45778;51.142;3.732;2022-09-02T12:54:16;4.80;;;2.35;;
59922;SDS011;45778;51.142;3.732;2022-09-02T12:56:47;5.07;;;2.50;;
59922;SDS011;45778;51.142;3.732;2022-09-02T12:59:28;3.72;;;2.40;;
59922;SDS011;45778;51.142;3.732;2022-09-02T13:21:12;2.95;;;2.10;;
59922;SDS011;45778;51.142;3.732;2022-09-02T13:29:35;3.13;;;1.83;;
59922;SDS011;45778;51.142;3.732;2022-09-02T13:34:45;2.22;;;2.00;;
59922;SDS011;45778;51.142;3.732;2022-09-02T13:40:25;4.75;;;2.10;;
59922;SDS011;45778;51.142;3.732;2022-09-02T13:42:58;6.00;;;2.35;;
59922;SDS011;45778;51.142;3.732;2022-09-02T13:45:26;5.85;;;2.30;;
59922;SDS011;45778;51.142;3.732;2022-09-02T13:47:58;5.07;;;2.17;;
59922;SDS011;45778;51.142;3.732;2022-09-02T13:50:44;2.50;;;2.25;;
59922;SDS011;45778;51.142;3.732;2022-09-02T13:53:13;3.92;;;2.20;;
59922;SDS011;45778;51.142;3.732;2022-09-02T13:56:02;3.72;;;2.22;;
59922;SDS011;45778;51.142;3.732;2022-09-02T13:58:33;3.03;;;2.20;;
59922;SDS011;45778;51.142;3.732;2022-09-02T14:01:16;2.80;;;2.20;;
59922;SDS011;45778;51.142;3.732;2022-09-02T14:03:52;3.10;;;1.95;;
59922;SDS011;45778;51.142;3.732;2022-09-02T14:09:02;2.65;;;2.38;;
59922;SDS011;45778;51.142;3.732;2022-09-02T14:11:36;2.38;;;1.90;;
59922;SDS011;45778;51.142;3.732;2022-09-02T14:14:05;4.30;;;2.03;;
59922;SDS011;45778;51.142;3.732;2022-09-02T14:16:33;2.42;;;2.10;;
59922;SDS011;45778;51.142;3.732;2022-09-02T14:19:10;3.22;;;1.95;;
59922;SDS011;45778;51.142;3.732;2022-09-02T14:21:48;3.05;;;1.85;;
59922;SDS011;45778;51.142;3.732;2022-09-02T14:24:24;3.13;;;2.03;;
59922;SDS011;45778;51.142;3.732;2022-09-02T14:26:55;5.70;;;2.53;;
59922;SDS011;45778;51.142;3.732;2022-09-02T14:29:22;3.97;;;1.98;;
59922;SDS011;45778;51.142;3.732;2022-09-02T14:35:08;4.13;;;2.30;;
59922;SDS011;45778;51.142;3.732;2022-09-02T14:37:52;3.45;;;2.22;;
59922;SDS011;45778;51.142;3.732;2022-09-02T14:40:34;2.40;;;2.00;;
59922;SDS011;45778;51.142;3.732;2022-09-02T14:43:02;5.68;;;2.50;;
59922;SDS011;45778;51.142;3.732;2022-09-02T14:45:32;5.63;;;2.10;;
59922;SDS011;45778;51.142;3.732;2022-09-02T14:47:59;3.70;;;2.20;;
59922;SDS011;45778;51.142;3.732;2022-09-02T14:50:34;4.70;;;2.20;;
59922;SDS011;45778;51.142;3.732;2022-09-02T14:53:02;6.13;;;1.92;;
59922;SDS011;45778;51.142;3.732;2022-09-02T14:58:08;6.25;;;2.55;;
59922;SDS011;45778;51.142;3.732;2022-09-02T15:00:34;3.25;;;2.03;;
59922;SDS011;45778;51.142;3.732;2022-09-02T15:03:03;5.07;;;2.03;;
59922;SDS011;45778;51.142;3.732;2022-09-02T15:05:30;3.38;;;2.33;;
59922;SDS011;45778;51.142;3.732;2022-09-02T15:07:56;4.07;;;2.20;;
59922;SDS011;45778;51.142;3.732;2022-09-02T15:10:22;6.63;;;2.33;;
59922;SDS011;45778;51.142;3.732;2022-09-02T15:12:49;3.38;;;2.20;;
59922;SDS011;45778;51.142;3.732;2022-09-02T15:15:20;2.70;;;1.83;;
59922;SDS011;45778;51.142;3.732;2022-09-02T15:17:45;6.05;;;2.10;;
59922;SDS011;45778;51.142;3.732;2022-09-02T15:20:11;7.57;;;2.33;;
59922;SDS011;45778;51.142;3.732;2022-09-02T15:22:37;8.85;;;2.38;;
59922;SDS011;45778;51.142;3.732;2022-09-02T15:25:03;11.88;;;2.40;;
59922;SDS011;45778;51.142;3.732;2022-09-02T15:27:31;6.03;;;2.15;;
59922;SDS011;45778;51.142;3.732;2022-09-02T15:29:58;4.00;;;2.20;;
59922;SDS011;45778;51.142;3.732;2022-09-02T15:32:25;2.50;;;1.70;;
59922;SDS011;45778;51.142;3.732;2022-09-02T15:34:52;6.55;;;2.65;;
59922;SDS011;45778;51.142;3.732;2022-09-02T15:37:17;5.43;;;1.58;;
59922;SDS011;45778;51.142;3.732;2022-09-02T15:39:43;3.63;;;2.25;;
59922;SDS011;45778;51.142;3.732;2022-09-02T15:42:09;3.97;;;1.70;;
59922;SDS011;45778;51.142;3.732;2022-09-02T15:44:34;5.03;;;2.17;;
59922;SDS011;45778;51.142;3.732;2022-09-02T15:47:00;1.80;;;1.65;;
59922;SDS011;45778;51.142;3.732;2022-09-02T15:49:26;4.05;;;1.70;;
59922;SDS011;45778;51.142;3.732;2022-09-02T15:51:52;3.83;;;2.20;;
59922;SDS011;45778;51.142;3.732;2022-09-02T15:54:19;3.88;;;1.90;;
59922;SDS011;45778;51.142;3.732;2022-09-02T15:56:46;4.18;;;1.90;;
59922;SDS011;45778;51.142;3.732;2022-09-02T15:59:14;3.28;;;1.75;;
59922;SDS011;45778;51.142;3.732;2022-09-02T16:01:54;3.63;;;2.17;;
59922;SDS011;45778;51.142;3.732;2022-09-02T16:04:22;4.45;;;1.75;;
59922;SDS011;45778;51.142;3.732;2022-09-02T16:06:48;7.68;;;2.08;;
59922;SDS011;45778;51.142;3.732;2022-09-02T16:09:16;3.35;;;1.80;;
59922;SDS011;45778;51.142;3.732;2022-09-02T16:11:43;5.90;;;2.38;;
59922;SDS011;45778;51.142;3.732;2022-09-02T16:14:11;4.00;;;2.60;;
59922;SDS011;45778;51.142;3.732;2022-09-02T16:16:38;6.20;;;2.63;;
59922;SDS011;45778;51.142;3.732;2022-09-02T16:19:04;6.18;;;2.40;;
59922;SDS011;45778;51.142;3.732;2022-09-02T16:21:33;7.75;;;3.05;;
59922;SDS011;45778;51.142;3.732;2022-09-02T16:24:03;6.90;;;2.50;;
59922;SDS011;45778;51.142;3.732;2022-09-02T16:26:30;6.57;;;3.17;;
59922;SDS011;45778;51.142;3.732;2022-09-02T16:29:01;7.32;;;3.08;;
59922;SDS011;45778;51.142;3.732;2022-09-02T16:31:29;4.35;;;2.70;;
59922;SDS011;45778;51.142;3.732;2022-09-02T16:34:04;6.70;;;2.80;;
59922;SDS011;45778;51.142;3.732;2022-09-02T16:36:36;3.65;;;2.67;;
59922;SDS011;45778;51.142;3.732;2022-09-02T16:39:04;2.92;;;2.40;;
59922;SDS011;45778;51.142;3.732;2022-09-02T16:44:01;3.47;;;2.53;;
59922;SDS011;45778;51.142;3.732;2022-09-02T16:46:29;3.55;;;2.97;;
59922;SDS011;45778;51.142;3.732;2022-09-02T16:48:56;3.78;;;2.55;;
59922;SDS011;45778;51.142;3.732;2022-09-02T16:51:22;4.95;;;2.67;;
59922;SDS011;45778;51.142;3.732;2022-09-02T16:53:52;4.43;;;2.42;;
59922;SDS011;45778;51.142;3.732;2022-09-02T16:56:19;3.28;;;2.72;;
59922;SDS011;45778;51.142;3.732;2022-09-02T16:58:46;5.63;;;2.67;;
59922;SDS011;45778;51.142;3.732;2022-09-02T17:01:12;5.00;;;2.88;;
59922;SDS011;45778;51.142;3.732;2022-09-02T17:03:38;5.22;;;3.03;;
59922;SDS011;45778;51.142;3.732;2022-09-02T17:06:05;11.80;;;2.90;;
59922;SDS011;45778;51.142;3.732;2022-09-02T17:08:31;9.30;;;3.58;;
59922;SDS011;45778;51.142;3.732;2022-09-02T17:13:49;26.88;;;22.48;;
59922;SDS011;45778;51.142;3.732;2022-09-02T17:16:18;26.58;;;5.45;;
59922;SDS011;45778;51.142;3.732;2022-09-02T17:18:44;10.32;;;3.00;;